Hansboro, North Dakota
Current Conditions -  °F | °C
As of 2:55 PM on Thursday 18 Dec 2014 (Local Time) from K06D Reporting Station
Haze Haze  
Wind Chill:   Ceiling: 400
Heat Index: 18°   Visibility: 5mi
Dew Point: 18°   Wind: 8mph
Humidity: 100%   Direction: 180°S
Pressure: 30.03"   Gusts: NA
Location:  48.95°N, 99.38°W
Report Text: K06D 182055Z AUTO 18007KT 5SM BR OVC004 M08/M08 A3003 RMK AO2
Loading
Personal Weather Stations






























Interactive Weather Map New forecast layout! Learn more

10-Day Weather Forecast

Advertisements
Track Severe Weather on mobile